sensor_id;sensor_type;location;lat;lon;timestamp;P1;durP1;ratioP1;P2;durP2;ratioP2
64459;SDS011;50828;53.756;21.140;2022-10-16T00:02:50;29.60;;;17.80;;
64459;SDS011;50828;53.756;21.140;2022-10-16T00:07:57;27.80;;;18.30;;
64459;SDS011;50828;53.756;21.140;2022-10-16T00:13:04;29.10;;;18.50;;
64459;SDS011;50828;53.756;21.140;2022-10-16T00:18:12;33.60;;;20.00;;
64459;SDS011;50828;53.756;21.140;2022-10-16T00:23:19;27.00;;;18.40;;
64459;SDS011;50828;53.756;21.140;2022-10-16T00:28:27;31.90;;;19.50;;
64459;SDS011;50828;53.756;21.140;2022-10-16T00:33:36;27.40;;;18.60;;
64459;SDS011;50828;53.756;21.140;2022-10-16T00:38:45;25.90;;;17.70;;
64459;SDS011;50828;53.756;21.140;2022-10-16T00:43:56;26.20;;;18.60;;
64459;SDS011;50828;53.756;21.140;2022-10-16T00:49:05;28.60;;;18.60;;
64459;SDS011;50828;53.756;21.140;2022-10-16T00:54:14;29.00;;;19.00;;
64459;SDS011;50828;53.756;21.140;2022-10-16T00:59:25;27.20;;;18.00;;
64459;SDS011;50828;53.756;21.140;2022-10-16T01:04:35;28.90;;;17.70;;
64459;SDS011;50828;53.756;21.140;2022-10-16T01:09:47;25.80;;;17.30;;
64459;SDS011;50828;53.756;21.140;2022-10-16T01:15:04;26.90;;;17.50;;
64459;SDS011;50828;53.756;21.140;2022-10-16T01:20:16;26.50;;;17.30;;
64459;SDS011;50828;53.756;21.140;2022-10-16T01:25:34;27.40;;;17.00;;
64459;SDS011;50828;53.756;21.140;2022-10-16T01:30:55;23.60;;;17.40;;
64459;SDS011;50828;53.756;21.140;2022-10-16T01:36:07;24.30;;;17.00;;
64459;SDS011;50828;53.756;21.140;2022-10-16T01:46:39;31.80;;;24.10;;
64459;SDS011;50828;53.756;21.140;2022-10-16T01:51:49;25.00;;;17.70;;
64459;SDS011;50828;53.756;21.140;2022-10-16T01:57:01;25.00;;;17.10;;
64459;SDS011;50828;53.756;21.140;2022-10-16T02:02:12;27.90;;;18.20;;
64459;SDS011;50828;53.756;21.140;2022-10-16T02:07:22;27.70;;;17.10;;
64459;SDS011;50828;53.756;21.140;2022-10-16T02:12:30;25.00;;;17.50;;
64459;SDS011;50828;53.756;21.140;2022-10-16T02:17:40;26.50;;;17.60;;
64459;SDS011;50828;53.756;21.140;2022-10-16T02:22:47;24.50;;;17.40;;
64459;SDS011;50828;53.756;21.140;2022-10-16T02:27:57;25.30;;;17.20;;
64459;SDS011;50828;53.756;21.140;2022-10-16T02:38:17;26.70;;;16.00;;
64459;SDS011;50828;53.756;21.140;2022-10-16T02:43:25;23.30;;;15.70;;
64459;SDS011;50828;53.756;21.140;2022-10-16T02:48:33;26.40;;;17.00;;
64459;SDS011;50828;53.756;21.140;2022-10-16T02:53:40;27.80;;;17.30;;
64459;SDS011;50828;53.756;21.140;2022-10-16T02:58:48;26.70;;;16.40;;
64459;SDS011;50828;53.756;21.140;2022-10-16T03:03:55;25.50;;;16.70;;
64459;SDS011;50828;53.756;21.140;2022-10-16T03:09:03;26.00;;;16.30;;
64459;SDS011;50828;53.756;21.140;2022-10-16T03:14:10;21.90;;;15.40;;
64459;SDS011;50828;53.756;21.140;2022-10-16T03:19:19;20.80;;;14.70;;
64459;SDS011;50828;53.756;21.140;2022-10-16T03:24:26;22.40;;;16.10;;
64459;SDS011;50828;53.756;21.140;2022-10-16T03:29:34;19.50;;;13.80;;
64459;SDS011;50828;53.756;21.140;2022-10-16T03:34:41;21.40;;;15.60;;
64459;SDS011;50828;53.756;21.140;2022-10-16T03:39:49;20.50;;;15.50;;
64459;SDS011;50828;53.756;21.140;2022-10-16T03:44:56;22.60;;;16.40;;
64459;SDS011;50828;53.756;21.140;2022-10-16T03:50:05;26.50;;;16.40;;
64459;SDS011;50828;53.756;21.140;2022-10-16T03:55:13;7.80;;;4.90;;
64459;SDS011;50828;53.756;21.140;2022-10-16T04:00:21;21.10;;;14.90;;
64459;SDS011;50828;53.756;21.140;2022-10-16T04:05:28;19.20;;;14.40;;
64459;SDS011;50828;53.756;21.140;2022-10-16T04:10:36;23.40;;;15.60;;
64459;SDS011;50828;53.756;21.140;2022-10-16T04:15:44;23.30;;;15.30;;
64459;SDS011;50828;53.756;21.140;2022-10-16T04:20:51;21.20;;;15.10;;
64459;SDS011;50828;53.756;21.140;2022-10-16T04:25:59;23.30;;;15.80;;
64459;SDS011;50828;53.756;21.140;2022-10-16T04:31:06;20.70;;;15.30;;
64459;SDS011;50828;53.756;21.140;2022-10-16T04:36:14;23.40;;;15.10;;
64459;SDS011;50828;53.756;21.140;2022-10-16T04:41:21;21.00;;;15.00;;
64459;SDS011;50828;53.756;21.140;2022-10-16T04:46:28;20.60;;;13.70;;
64459;SDS011;50828;53.756;21.140;2022-10-16T04:51:36;24.20;;;15.30;;
64459;SDS011;50828;53.756;21.140;2022-10-16T04:56:43;19.10;;;14.20;;
64459;SDS011;50828;53.756;21.140;2022-10-16T05:01:51;19.80;;;14.40;;
64459;SDS011;50828;53.756;21.140;2022-10-16T05:06:59;19.90;;;14.10;;
64459;SDS011;50828;53.756;21.140;2022-10-16T05:12:07;20.50;;;14.90;;
64459;SDS011;50828;53.756;21.140;2022-10-16T05:17:14;20.50;;;15.50;;
64459;SDS011;50828;53.756;21.140;2022-10-16T05:22:21;21.00;;;15.30;;
64459;SDS011;50828;53.756;21.140;2022-10-16T05:27:29;25.00;;;15.50;;
64459;SDS011;50828;53.756;21.140;2022-10-16T05:32:36;22.20;;;16.10;;
64459;SDS011;50828;53.756;21.140;2022-10-16T05:37:43;24.20;;;15.90;;
64459;SDS011;50828;53.756;21.140;2022-10-16T05:42:55;25.60;;;17.80;;
64459;SDS011;50828;53.756;21.140;2022-10-16T05:48:03;23.90;;;17.90;;
64459;SDS011;50828;53.756;21.140;2022-10-16T05:53:10;22.30;;;15.90;;
64459;SDS011;50828;53.756;21.140;2022-10-16T05:58:18;25.90;;;16.30;;
64459;SDS011;50828;53.756;21.140;2022-10-16T06:03:26;22.50;;;16.20;;
64459;SDS011;50828;53.756;21.140;2022-10-16T06:08:33;19.20;;;14.40;;
64459;SDS011;50828;53.756;21.140;2022-10-16T06:13:40;21.00;;;14.70;;
64459;SDS011;50828;53.756;21.140;2022-10-16T06:18:50;19.00;;;13.60;;
64459;SDS011;50828;53.756;21.140;2022-10-16T06:23:58;19.00;;;13.30;;
64459;SDS011;50828;53.756;21.140;2022-10-16T06:29:05;17.20;;;12.70;;
64459;SDS011;50828;53.756;21.140;2022-10-16T06:34:13;17.20;;;11.80;;
64459;SDS011;50828;53.756;21.140;2022-10-16T06:39:21;15.70;;;10.80;;
64459;SDS011;50828;53.756;21.140;2022-10-16T06:44:28;14.00;;;10.20;;
64459;SDS011;50828;53.756;21.140;2022-10-16T06:49:36;16.00;;;11.50;;
64459;SDS011;50828;53.756;21.140;2022-10-16T06:54:43;14.70;;;10.10;;
64459;SDS011;50828;53.756;21.140;2022-10-16T06:59:50;16.40;;;10.60;;
64459;SDS011;50828;53.756;21.140;2022-10-16T07:04:57;15.30;;;9.60;;
64459;SDS011;50828;53.756;21.140;2022-10-16T07:10:06;15.70;;;10.20;;
64459;SDS011;50828;53.756;21.140;2022-10-16T07:15:14;14.10;;;10.40;;
64459;SDS011;50828;53.756;21.140;2022-10-16T07:20:21;14.20;;;9.70;;
64459;SDS011;50828;53.756;21.140;2022-10-16T07:25:28;14.90;;;9.50;;
64459;SDS011;50828;53.756;21.140;2022-10-16T07:30:36;14.20;;;9.70;;
64459;SDS011;50828;53.756;21.140;2022-10-16T07:35:49;15.30;;;9.00;;
64459;SDS011;50828;53.756;21.140;2022-10-16T07:40:58;13.60;;;9.50;;
64459;SDS011;50828;53.756;21.140;2022-10-16T07:46:06;14.40;;;9.10;;
64459;SDS011;50828;53.756;21.140;2022-10-16T07:51:13;14.10;;;10.30;;
64459;SDS011;50828;53.756;21.140;2022-10-16T07:56:22;12.40;;;9.20;;
64459;SDS011;50828;53.756;21.140;2022-10-16T08:01:29;14.00;;;9.30;;
64459;SDS011;50828;53.756;21.140;2022-10-16T08:06:37;14.60;;;9.10;;
64459;SDS011;50828;53.756;21.140;2022-10-16T08:11:45;12.30;;;9.00;;
64459;SDS011;50828;53.756;21.140;2022-10-16T08:16:53;12.30;;;8.50;;
64459;SDS011;50828;53.756;21.140;2022-10-16T08:22:00;15.70;;;9.10;;
64459;SDS011;50828;53.756;21.140;2022-10-16T08:27:08;12.10;;;9.00;;
64459;SDS011;50828;53.756;21.140;2022-10-16T08:32:15;11.60;;;8.10;;
64459;SDS011;50828;53.756;21.140;2022-10-16T08:37:31;15.60;;;9.10;;
64459;SDS011;50828;53.756;21.140;2022-10-16T08:42:42;15.50;;;10.10;;
64459;SDS011;50828;53.756;21.140;2022-10-16T08:48:03;12.90;;;9.40;;
64459;SDS011;50828;53.756;21.140;2022-10-16T08:53:20;12.60;;;8.80;;
64459;SDS011;50828;53.756;21.140;2022-10-16T08:58:33;12.50;;;9.30;;
64459;SDS011;50828;53.756;21.140;2022-10-16T09:03:45;13.30;;;8.70;;
64459;SDS011;50828;53.756;21.140;2022-10-16T09:09:09;12.00;;;8.50;;
64459;SDS011;50828;53.756;21.140;2022-10-16T09:14:45;13.80;;;9.10;;
64459;SDS011;50828;53.756;21.140;2022-10-16T09:20:09;12.00;;;8.10;;
64459;SDS011;50828;53.756;21.140;2022-10-16T09:25:30;12.30;;;9.10;;
64459;SDS011;50828;53.756;21.140;2022-10-16T09:30:38;13.70;;;8.40;;
64459;SDS011;50828;53.756;21.140;2022-10-16T09:35:46;14.10;;;10.10;;
64459;SDS011;50828;53.756;21.140;2022-10-16T09:40:56;11.50;;;8.40;;
64459;SDS011;50828;53.756;21.140;2022-10-16T09:46:06;14.70;;;9.70;;
64459;SDS011;50828;53.756;21.140;2022-10-16T09:51:26;15.50;;;9.90;;
64459;SDS011;50828;53.756;21.140;2022-10-16T09:56:34;12.60;;;9.10;;
64459;SDS011;50828;53.756;21.140;2022-10-16T10:01:44;11.20;;;8.00;;
64459;SDS011;50828;53.756;21.140;2022-10-16T10:06:54;12.10;;;8.90;;
64459;SDS011;50828;53.756;21.140;2022-10-16T10:12:03;12.00;;;8.20;;
64459;SDS011;50828;53.756;21.140;2022-10-16T10:17:28;14.70;;;9.60;;
64459;SDS011;50828;53.756;21.140;2022-10-16T10:22:41;18.30;;;9.50;;
64459;SDS011;50828;53.756;21.140;2022-10-16T10:27:54;14.30;;;9.10;;
64459;SDS011;50828;53.756;21.140;2022-10-16T10:33:14;15.60;;;10.10;;
64459;SDS011;50828;53.756;21.140;2022-10-16T10:38:33;14.80;;;9.60;;
64459;SDS011;50828;53.756;21.140;2022-10-16T10:43:53;16.60;;;10.60;;
64459;SDS011;50828;53.756;21.140;2022-10-16T10:49:13;14.60;;;9.50;;
64459;SDS011;50828;53.756;21.140;2022-10-16T10:54:31;14.30;;;9.40;;
64459;SDS011;50828;53.756;21.140;2022-10-16T11:05:24;15.80;;;9.20;;
64459;SDS011;50828;53.756;21.140;2022-10-16T11:10:41;12.20;;;9.30;;
64459;SDS011;50828;53.756;21.140;2022-10-16T11:15:52;12.60;;;8.30;;
64459;SDS011;50828;53.756;21.140;2022-10-16T11:21:04;18.10;;;10.40;;
64459;SDS011;50828;53.756;21.140;2022-10-16T11:26:15;14.30;;;9.40;;
64459;SDS011;50828;53.756;21.140;2022-10-16T11:31:26;12.80;;;9.10;;
64459;SDS011;50828;53.756;21.140;2022-10-16T11:36:42;12.00;;;9.50;;
64459;SDS011;50828;53.756;21.140;2022-10-16T11:41:55;12.60;;;9.40;;
64459;SDS011;50828;53.756;21.140;2022-10-16T11:47:10;11.50;;;8.70;;
64459;SDS011;50828;53.756;21.140;2022-10-16T11:52:46;13.40;;;8.80;;
64459;SDS011;50828;53.756;21.140;2022-10-16T11:58:01;10.70;;;8.00;;
64459;SDS011;50828;53.756;21.140;2022-10-16T12:03:14;10.10;;;7.90;;
64459;SDS011;50828;53.756;21.140;2022-10-16T12:08:28;11.90;;;8.80;;
64459;SDS011;50828;53.756;21.140;2022-10-16T12:13:40;11.00;;;8.30;;
64459;SDS011;50828;53.756;21.140;2022-10-16T12:19:02;12.90;;;8.30;;
64459;SDS011;50828;53.756;21.140;2022-10-16T12:24:27;13.10;;;7.60;;
64459;SDS011;50828;53.756;21.140;2022-10-16T12:29:40;12.70;;;8.90;;
64459;SDS011;50828;53.756;21.140;2022-10-16T12:34:50;9.60;;;8.10;;
64459;SDS011;50828;53.756;21.140;2022-10-16T12:39:57;13.20;;;9.20;;
64459;SDS011;50828;53.756;21.140;2022-10-16T12:45:27;10.60;;;8.30;;
64459;SDS011;50828;53.756;21.140;2022-10-16T12:50:37;11.00;;;8.00;;
64459;SDS011;50828;53.756;21.140;2022-10-16T12:55:47;9.60;;;7.70;;
64459;SDS011;50828;53.756;21.140;2022-10-16T13:01:10;10.70;;;8.40;;
64459;SDS011;50828;53.756;21.140;2022-10-16T13:06:28;12.00;;;8.40;;
64459;SDS011;50828;53.756;21.140;2022-10-16T13:11:55;10.70;;;8.50;;
64459;SDS011;50828;53.756;21.140;2022-10-16T13:17:14;12.40;;;8.80;;
64459;SDS011;50828;53.756;21.140;2022-10-16T13:22:29;12.40;;;8.50;;
64459;SDS011;50828;53.756;21.140;2022-10-16T13:27:45;13.00;;;8.80;;
64459;SDS011;50828;53.756;21.140;2022-10-16T13:32:58;11.90;;;8.90;;
64459;SDS011;50828;53.756;21.140;2022-10-16T13:38:09;12.80;;;10.10;;
64459;SDS011;50828;53.756;21.140;2022-10-16T13:43:20;15.50;;;9.70;;
64459;SDS011;50828;53.756;21.140;2022-10-16T13:48:31;13.40;;;9.50;;
64459;SDS011;50828;53.756;21.140;2022-10-16T13:53:39;14.40;;;9.40;;
64459;SDS011;50828;53.756;21.140;2022-10-16T13:58:57;12.40;;;9.10;;
64459;SDS011;50828;53.756;21.140;2022-10-16T14:04:05;12.60;;;9.10;;
64459;SDS011;50828;53.756;21.140;2022-10-16T14:09:16;12.60;;;9.00;;
64459;SDS011;50828;53.756;21.140;2022-10-16T14:14:32;14.10;;;8.90;;
64459;SDS011;50828;53.756;21.140;2022-10-16T14:19:47;12.00;;;8.70;;
64459;SDS011;50828;53.756;21.140;2022-10-16T14:25:13;11.00;;;8.10;;
64459;SDS011;50828;53.756;21.140;2022-10-16T14:30:32;11.80;;;8.60;;
64459;SDS011;50828;53.756;21.140;2022-10-16T14:35:41;11.70;;;8.10;;
64459;SDS011;50828;53.756;21.140;2022-10-16T14:40:48;14.30;;;8.20;;
64459;SDS011;50828;53.756;21.140;2022-10-16T14:45:56;10.80;;;7.70;;
64459;SDS011;50828;53.756;21.140;2022-10-16T14:51:04;12.20;;;8.50;;
64459;SDS011;50828;53.756;21.140;2022-10-16T14:56:16;12.70;;;8.60;;
64459;SDS011;50828;53.756;21.140;2022-10-16T15:01:24;11.60;;;8.10;;
64459;SDS011;50828;53.756;21.140;2022-10-16T15:06:31;13.20;;;9.10;;
64459;SDS011;50828;53.756;21.140;2022-10-16T15:11:39;12.30;;;9.40;;
64459;SDS011;50828;53.756;21.140;2022-10-16T15:16:47;13.90;;;8.90;;
64459;SDS011;50828;53.756;21.140;2022-10-16T15:21:54;12.90;;;8.30;;
64459;SDS011;50828;53.756;21.140;2022-10-16T15:27:01;14.70;;;9.50;;
64459;SDS011;50828;53.756;21.140;2022-10-16T15:32:09;12.90;;;9.20;;
64459;SDS011;50828;53.756;21.140;2022-10-16T15:37:17;13.50;;;8.80;;
64459;SDS011;50828;53.756;21.140;2022-10-16T15:42:24;13.20;;;9.10;;
64459;SDS011;50828;53.756;21.140;2022-10-16T15:47:31;11.90;;;8.70;;
64459;SDS011;50828;53.756;21.140;2022-10-16T15:52:38;12.10;;;9.20;;
64459;SDS011;50828;53.756;21.140;2022-10-16T15:57:46;14.50;;;9.70;;
64459;SDS011;50828;53.756;21.140;2022-10-16T16:02:54;13.30;;;9.40;;
64459;SDS011;50828;53.756;21.140;2022-10-16T16:08:01;13.70;;;10.00;;
64459;SDS011;50828;53.756;21.140;2022-10-16T16:13:09;11.30;;;8.80;;
64459;SDS011;50828;53.756;21.140;2022-10-16T16:18:16;16.40;;;9.50;;
64459;SDS011;50828;53.756;21.140;2022-10-16T16:23:23;12.40;;;9.00;;
64459;SDS011;50828;53.756;21.140;2022-10-16T16:28:30;13.00;;;9.90;;
64459;SDS011;50828;53.756;21.140;2022-10-16T16:33:38;15.20;;;9.50;;
64459;SDS011;50828;53.756;21.140;2022-10-16T16:38:46;15.00;;;9.60;;
64459;SDS011;50828;53.756;21.140;2022-10-16T16:43:53;14.70;;;8.80;;
64459;SDS011;50828;53.756;21.140;2022-10-16T16:49:06;13.60;;;9.90;;
64459;SDS011;50828;53.756;21.140;2022-10-16T16:54:14;14.50;;;9.80;;
64459;SDS011;50828;53.756;21.140;2022-10-16T16:59:21;14.60;;;9.90;;
64459;SDS011;50828;53.756;21.140;2022-10-16T17:04:28;14.00;;;9.80;;
64459;SDS011;50828;53.756;21.140;2022-10-16T17:09:35;15.40;;;9.70;;
64459;SDS011;50828;53.756;21.140;2022-10-16T17:14:43;15.00;;;9.70;;
64459;SDS011;50828;53.756;21.140;2022-10-16T17:19:50;12.70;;;9.30;;
64459;SDS011;50828;53.756;21.140;2022-10-16T17:24:57;12.70;;;9.70;;
64459;SDS011;50828;53.756;21.140;2022-10-16T17:30:07;15.00;;;10.70;;
64459;SDS011;50828;53.756;21.140;2022-10-16T17:35:16;14.40;;;9.70;;
64459;SDS011;50828;53.756;21.140;2022-10-16T17:40:23;16.10;;;10.30;;
64459;SDS011;50828;53.756;21.140;2022-10-16T17:45:31;14.00;;;9.80;;
64459;SDS011;50828;53.756;21.140;2022-10-16T17:50:42;14.90;;;10.10;;
64459;SDS011;50828;53.756;21.140;2022-10-16T17:55:50;14.00;;;10.20;;
64459;SDS011;50828;53.756;21.140;2022-10-16T18:06:16;13.90;;;9.70;;
64459;SDS011;50828;53.756;21.140;2022-10-16T18:11:25;12.80;;;9.70;;
64459;SDS011;50828;53.756;21.140;2022-10-16T18:16:33;15.60;;;9.90;;
64459;SDS011;50828;53.756;21.140;2022-10-16T18:21:42;16.60;;;10.40;;
64459;SDS011;50828;53.756;21.140;2022-10-16T18:26:50;16.60;;;11.10;;
64459;SDS011;50828;53.756;21.140;2022-10-16T18:31:59;16.20;;;11.20;;
64459;SDS011;50828;53.756;21.140;2022-10-16T18:37:06;18.60;;;11.80;;
64459;SDS011;50828;53.756;21.140;2022-10-16T18:42:14;14.40;;;10.60;;
64459;SDS011;50828;53.756;21.140;2022-10-16T18:47:22;19.50;;;12.10;;
64459;SDS011;50828;53.756;21.140;2022-10-16T18:52:29;17.90;;;11.90;;
64459;SDS011;50828;53.756;21.140;2022-10-16T18:57:36;17.20;;;12.20;;
64459;SDS011;50828;53.756;21.140;2022-10-16T19:02:43;17.00;;;11.40;;
64459;SDS011;50828;53.756;21.140;2022-10-16T19:07:51;15.30;;;11.40;;
64459;SDS011;50828;53.756;21.140;2022-10-16T19:12:58;14.10;;;10.80;;
64459;SDS011;50828;53.756;21.140;2022-10-16T19:18:09;16.50;;;11.90;;
64459;SDS011;50828;53.756;21.140;2022-10-16T19:23:16;15.80;;;10.60;;
64459;SDS011;50828;53.756;21.140;2022-10-16T19:28:23;17.90;;;10.80;;
64459;SDS011;50828;53.756;21.140;2022-10-16T19:33:31;16.60;;;10.90;;
64459;SDS011;50828;53.756;21.140;2022-10-16T19:38:38;16.30;;;11.20;;
64459;SDS011;50828;53.756;21.140;2022-10-16T19:43:47;14.90;;;10.90;;
64459;SDS011;50828;53.756;21.140;2022-10-16T19:48:55;17.10;;;11.10;;
64459;SDS011;50828;53.756;21.140;2022-10-16T19:54:04;18.50;;;11.90;;
64459;SDS011;50828;53.756;21.140;2022-10-16T19:59:12;15.00;;;11.00;;
64459;SDS011;50828;53.756;21.140;2022-10-16T20:04:22;17.50;;;11.60;;
64459;SDS011;50828;53.756;21.140;2022-10-16T20:09:31;14.90;;;11.50;;
64459;SDS011;50828;53.756;21.140;2022-10-16T20:14:38;17.90;;;11.70;;
64459;SDS011;50828;53.756;21.140;2022-10-16T20:19:45;17.80;;;10.60;;
64459;SDS011;50828;53.756;21.140;2022-10-16T20:24:52;18.70;;;12.20;;
64459;SDS011;50828;53.756;21.140;2022-10-16T20:30:00;16.80;;;11.60;;
64459;SDS011;50828;53.756;21.140;2022-10-16T20:35:08;16.70;;;11.40;;
64459;SDS011;50828;53.756;21.140;2022-10-16T20:40:16;17.90;;;11.50;;
64459;SDS011;50828;53.756;21.140;2022-10-16T20:45:23;18.30;;;13.00;;
64459;SDS011;50828;53.756;21.140;2022-10-16T20:50:30;18.90;;;11.80;;
64459;SDS011;50828;53.756;21.140;2022-10-16T20:55:37;17.80;;;12.10;;
64459;SDS011;50828;53.756;21.140;2022-10-16T21:00:45;15.30;;;11.70;;
64459;SDS011;50828;53.756;21.140;2022-10-16T21:05:52;17.50;;;11.80;;
64459;SDS011;50828;53.756;21.140;2022-10-16T21:11:02;17.10;;;11.60;;
64459;SDS011;50828;53.756;21.140;2022-10-16T21:16:15;18.10;;;12.30;;
64459;SDS011;50828;53.756;21.140;2022-10-16T21:21:23;18.20;;;12.00;;
64459;SDS011;50828;53.756;21.140;2022-10-16T21:26:31;20.60;;;12.50;;
64459;SDS011;50828;53.756;21.140;2022-10-16T21:31:38;19.20;;;11.50;;
64459;SDS011;50828;53.756;21.140;2022-10-16T21:36:46;16.10;;;11.10;;
64459;SDS011;50828;53.756;21.140;2022-10-16T21:41:53;14.80;;;10.50;;
64459;SDS011;50828;53.756;21.140;2022-10-16T21:47:00;18.90;;;11.00;;
64459;SDS011;50828;53.756;21.140;2022-10-16T21:52:07;15.80;;;11.20;;
64459;SDS011;50828;53.756;21.140;2022-10-16T21:57:15;15.70;;;11.60;;
64459;SDS011;50828;53.756;21.140;2022-10-16T22:02:22;15.90;;;10.60;;
64459;SDS011;50828;53.756;21.140;2022-10-16T22:07:29;15.30;;;10.90;;
64459;SDS011;50828;53.756;21.140;2022-10-16T22:12:36;15.50;;;10.70;;
64459;SDS011;50828;53.756;21.140;2022-10-16T22:17:44;15.10;;;10.50;;
64459;SDS011;50828;53.756;21.140;2022-10-16T22:22:51;14.30;;;10.20;;
64459;SDS011;50828;53.756;21.140;2022-10-16T22:27:58;15.00;;;10.90;;
64459;SDS011;50828;53.756;21.140;2022-10-16T22:33:05;16.50;;;11.10;;
64459;SDS011;50828;53.756;21.140;2022-10-16T22:38:12;14.90;;;10.50;;
64459;SDS011;50828;53.756;21.140;2022-10-16T22:43:19;17.20;;;11.20;;
64459;SDS011;50828;53.756;21.140;2022-10-16T22:48:27;16.60;;;11.30;;
64459;SDS011;50828;53.756;21.140;2022-10-16T22:53:34;17.00;;;11.10;;
64459;SDS011;50828;53.756;21.140;2022-10-16T22:58:41;15.40;;;10.90;;
64459;SDS011;50828;53.756;21.140;2022-10-16T23:03:49;17.60;;;10.90;;
64459;SDS011;50828;53.756;21.140;2022-10-16T23:08:57;19.50;;;11.60;;
64459;SDS011;50828;53.756;21.140;2022-10-16T23:14:05;19.70;;;11.90;;
64459;SDS011;50828;53.756;21.140;2022-10-16T23:19:12;17.50;;;11.90;;
64459;SDS011;50828;53.756;21.140;2022-10-16T23:24:19;16.30;;;11.20;;
64459;SDS011;50828;53.756;21.140;2022-10-16T23:29:26;16.20;;;11.30;;
64459;SDS011;50828;53.756;21.140;2022-10-16T23:34:34;16.80;;;10.70;;
64459;SDS011;50828;53.756;21.140;2022-10-16T23:39:41;14.70;;;10.00;;
64459;SDS011;50828;53.756;21.140;2022-10-16T23:44:48;16.20;;;10.30;;
64459;SDS011;50828;53.756;21.140;2022-10-16T23:49:55;14.60;;;10.60;;
64459;SDS011;50828;53.756;21.140;2022-10-16T23:55:03;14.60;;;10.30;;
